Time;durP1;ratioP1;P1;durP2;ratioP2;P2;SDS_P1;SDS_P2;PMS_P1;PMS_P2;Temp;Humidity;BMP_temperature;BMP_pressure;BME280_temperature;BME280_humidity;BME280_pressure;Samples;Min_cycle;Max_cycle;Signal;HPM_P1;HPM_P2
2021/10/04 00:00:25;;;;;;;12.02;9.65;;;13.60;77.00;;;13.26;62.14;94695.47;5020160;28;20229;-80
2021/10/04 00:02:52;;;;;;;12.85;9.43;;;13.70;77.20;;;13.24;62.56;94702.78;5020228;28;20210;-80
2021/10/04 00:05:20;;;;;;;12.27;10.05;;;13.60;77.00;;;13.22;62.21;94708.25;5053492;28;20290;-81
2021/10/04 00:07:47;;;;;;;13.07;10.02;;;13.60;77.10;;;13.20;62.24;94706.88;5053412;28;20207;-80
2021/10/04 00:10:17;;;;;;;13.90;10.00;;;13.60;77.20;;;13.22;62.45;94713.53;5053194;28;20657;-81
2021/10/04 00:12:45;;;;;;;13.15;9.98;;;13.60;77.20;;;13.21;62.25;94716.38;5036534;28;20648;-79
2021/10/04 00:15:16;;;;;;;11.45;9.18;;;13.60;77.20;;;13.22;62.29;94716.16;5036487;28;20624;-80
2021/10/04 00:17:45;;;;;;;15.13;9.45;;;13.60;77.20;;;13.18;62.55;94714.16;5053727;28;20216;-80
2021/10/04 00:20:16;;;;;;;12.43;9.38;;;13.60;77.20;;;13.20;62.37;94720.81;5036274;28;20435;-80
2021/10/04 00:22:43;;;;;;;13.50;10.02;;;13.50;77.10;;;13.20;62.46;94720.03;5052607;28;20211;-81
2021/10/04 00:25:11;;;;;;;12.27;9.38;;;13.60;77.20;;;13.19;62.53;94727.09;5049226;28;20191;-80
2021/10/04 00:27:38;;;;;;;12.98;9.95;;;13.60;77.20;;;13.17;62.21;94726.53;5066042;28;20629;-80
2021/10/04 00:30:08;;;;;;;13.20;9.52;;;13.60;77.20;;;13.16;62.58;94724.09;5066267;28;20202;-80
2021/10/04 00:32:40;;;;;;;12.68;9.45;;;13.50;77.10;;;13.14;62.62;94721.69;5065415;28;20220;-80
2021/10/04 00:35:09;;;;;;;15.18;9.98;;;13.50;77.10;;;13.13;62.53;94720.06;5066065;28;20196;-80
2021/10/04 00:37:37;;;;;;;12.88;10.00;;;13.50;77.10;;;13.11;62.37;94715.00;5065996;28;20216;-80
2021/10/04 00:40:10;;;;;;;15.23;10.00;;;13.50;77.10;;;13.11;62.58;94725.53;5068930;28;20585;-80
2021/10/04 00:42:38;;;;;;;13.75;10.07;;;13.50;77.10;;;13.11;62.62;94727.38;5035458;28;20705;-79
2021/10/04 00:45:07;;;;;;;13.70;10.00;;;13.50;77.10;;;13.08;62.84;94725.94;5036010;28;20207;-80
2021/10/04 00:47:34;;;;;;;12.45;9.93;;;13.50;77.10;;;13.07;62.69;94723.53;5036035;28;20219;-80
2021/10/04 00:50:03;;;;;;;10.88;9.38;;;13.50;77.10;;;13.05;62.71;94728.19;5019361;28;20644;-80
2021/10/04 00:52:30;;;;;;;12.32;9.68;;;13.50;77.10;;;13.04;62.58;94730.03;5068590;28;20219;-79
2021/10/04 00:54:57;;;;;;;13.30;9.63;;;13.40;77.00;;;13.05;62.73;94730.84;5035964;28;20572;-80
2021/10/04 00:57:24;;;;;;;13.15;9.60;;;13.40;77.10;;;13.00;62.79;94715.69;5035317;28;20704;-81
2021/10/04 00:59:52;;;;;;;12.23;9.88;;;13.40;77.00;;;13.01;62.89;94717.31;5035417;28;20215;-80
2021/10/04 01:02:19;;;;;;;13.15;9.88;;;13.40;77.00;;;13.03;62.66;94725.00;5034770;28;20700;-81
2021/10/04 01:04:47;;;;;;;13.85;10.20;;;13.40;77.10;;;13.02;62.86;94732.06;5035659;28;20210;-80
2021/10/04 01:07:14;;;;;;;14.80;9.48;;;13.40;77.20;;;13.02;62.84;94729.44;5035424;28;20693;-79
2021/10/04 01:09:41;;;;;;;13.43;10.05;;;13.40;77.40;;;13.03;62.97;94733.69;5035220;28;20196;-80
2021/10/04 01:12:09;;;;;;;14.05;10.15;;;13.40;77.40;;;13.02;63.09;94726.00;5051966;28;20246;-80
2021/10/04 01:14:36;;;;;;;13.65;10.25;;;13.40;77.40;;;13.04;63.07;94734.50;5051233;28;20206;-80
2021/10/04 01:17:04;;;;;;;11.48;8.88;;;13.50;77.50;;;13.03;62.98;94732.88;5050594;28;20277;-81
2021/10/04 01:19:31;;;;;;;15.25;10.63;;;13.40;77.50;;;13.02;62.93;94742.59;5035411;28;20614;-80
2021/10/04 01:21:58;;;;;;;12.60;9.65;;;13.50;77.60;;;13.03;62.99;94732.88;5051022;28;20211;-79
2021/10/04 01:24:25;;;;;;;11.30;9.05;;;13.40;77.60;;;13.04;63.07;94737.94;5035162;28;20192;-80
2021/10/04 01:26:52;;;;;;;12.98;9.80;;;13.30;77.60;;;13.03;62.82;94733.69;5018880;28;20276;-79
2021/10/04 01:29:20;;;;;;;11.35;8.90;;;13.40;77.60;;;13.03;63.16;94738.94;5035324;28;20730;-81
2021/10/04 01:31:48;;;;;;;14.00;10.35;;;13.40;77.70;;;13.03;63.07;94732.88;5034241;28;20249;-80
2021/10/04 01:34:15;;;;;;;12.32;9.60;;;13.40;77.80;;;13.02;63.23;94734.69;5015531;28;20193;-80
2021/10/04 01:36:42;;;;;;;12.18;9.55;;;13.40;77.70;;;13.02;63.18;94741.81;5048659;28;20584;-80
2021/10/04 01:39:10;;;;;;;36.50;10.25;;;13.30;77.70;;;12.98;63.38;94739.56;5064902;28;20283;-80
2021/10/04 01:41:38;;;;;;;14.27;9.02;;;13.40;77.80;;;12.98;63.72;94736.94;5044859;28;20219;-80
2021/10/04 01:44:05;;;;;;;23.05;9.55;;;13.40;77.90;;;13.00;63.36;94743.81;5035059;28;20245;-80
2021/10/04 01:46:32;;;;;;;14.80;8.95;;;13.30;77.80;;;12.97;63.43;94748.53;5034945;28;20227;-81
2021/10/04 01:49:00;;;;;;;16.10;9.43;;;13.40;77.80;;;12.99;63.35;94761.47;5051375;28;20564;-81
2021/10/04 01:51:27;;;;;;;43.42;9.95;;;13.40;77.90;;;12.96;63.50;94753.97;5033748;28;20230;-80
2021/10/04 01:53:54;;;;;;;24.80;9.80;;;13.40;77.90;;;13.00;63.37;94757.00;5034763;28;20191;-80
2021/10/04 01:56:21;;;;;;;24.42;9.18;;;13.30;77.90;;;12.99;63.36;94761.47;5034878;28;20768;-80
2021/10/04 01:58:49;;;;;;;53.55;9.48;;;13.40;78.00;;;12.97;63.54;94753.78;5034005;28;20195;-81
2021/10/04 02:01:19;;;;;;;14.52;8.25;;;13.40;78.00;;;12.96;63.34;94757.44;5033934;28;20227;-80
2021/10/04 02:03:47;;;;;;;10.50;7.97;;;13.40;78.00;;;12.96;63.59;94759.25;5022891;28;20398;-79
2021/10/04 02:06:14;;;;;;;12.40;8.85;;;13.30;78.00;;;12.96;63.67;94760.06;5031591;28;20616;-81
2021/10/04 02:08:41;;;;;;;34.75;9.65;;;13.30;78.10;;;12.96;63.79;94770.59;5015890;28;20200;-80
2021/10/04 02:11:08;;;;;;;28.13;9.60;;;13.30;78.10;;;12.95;63.57;94760.25;5034614;28;20608;-80
2021/10/04 02:13:36;;;;;;;50.67;10.18;;;13.30;78.10;;;12.97;64.03;94766.94;5034751;28;20721;-81
2021/10/04 02:16:04;;;;;;;24.38;10.02;;;13.30;78.20;;;12.96;63.70;94760.06;5034102;28;20230;-81
2021/10/04 02:18:31;;;;;;;14.68;9.55;;;13.30;78.20;;;12.95;64.03;94763.72;5051127;28;20192;-80
2021/10/04 02:20:58;;;;;;;31.73;9.70;;;13.30;78.30;;;12.97;63.89;94768.75;5033487;28;20701;-80
2021/10/04 02:23:25;;;;;;;85.38;9.93;;;13.30;78.40;;;12.98;63.76;94776.44;5063350;28;20207;-80
2021/10/04 02:25:53;;;;;;;228.45;13.20;;;13.30;78.40;;;13.00;63.91;94780.69;5047541;28;20696;-80
2021/10/04 02:28:21;;;;;;;52.13;8.93;;;13.30;78.50;;;13.00;64.13;94775.41;5038066;28;20223;-80
2021/10/04 02:30:51;;;;;;;45.40;8.43;;;13.40;78.60;;;13.01;64.25;94779.69;5050971;28;20282;-79
2021/10/04 02:33:19;;;;;;;71.78;10.65;;;13.40;78.70;;;13.02;64.02;94783.94;5034528;28;20192;-79
2021/10/04 02:35:47;;;;;;;25.45;9.18;;;13.30;78.50;;;13.01;64.12;94780.50;5034349;28;20575;-80
2021/10/04 02:38:14;;;;;;;59.33;10.57;;;13.40;78.80;;;13.06;64.30;94783.31;5033464;28;20206;-79
2021/10/04 02:40:42;;;;;;;44.17;10.45;;;13.40;78.90;;;13.12;64.00;94787.72;5049871;28;20235;-79
2021/10/04 02:43:10;;;;;;;64.82;10.27;;;13.30;78.90;;;13.18;64.52;94786.06;5058089;28;20657;-79
2021/10/04 02:45:37;;;;;;;28.13;9.80;;;13.40;79.10;;;13.23;64.28;94794.16;5047111;28;20203;-79
2021/10/04 02:48:05;;;;;;;29.85;10.18;;;13.50;79.20;;;13.28;64.14;94791.69;5014479;28;20196;-79
2021/10/04 02:50:32;;;;;;;29.10;10.00;;;13.40;79.20;;;13.33;64.32;94790.25;5046828;28;20561;-79
2021/10/04 02:52:59;;;;;;;17.55;10.13;;;13.50;79.30;;;13.35;63.97;94785.56;5050157;28;20227;-80
2021/10/04 02:55:27;;;;;;;16.67;10.30;;;13.60;79.40;;;13.44;64.33;94793.03;5050360;28;20198;-79
2021/10/04 02:57:54;;;;;;;13.50;10.60;;;13.60;79.40;;;13.48;64.28;94797.91;5030855;28;20739;-79
2021/10/04 03:00:36;;;;;;;16.90;10.18;;;13.60;79.40;;;13.55;64.46;94799.47;5024723;28;20723;-79
2021/10/04 03:03:07;;;;;;;16.30;10.45;;;13.70;80.10;;;13.57;64.13;94800.06;5034311;28;20206;-79
2021/10/04 03:05:34;;;;;;;21.20;11.60;;;13.80;79.70;;;13.67;64.66;94804.03;5050243;28;20211;-79
2021/10/04 03:08:05;;;;;;;22.27;10.73;;;13.80;79.60;;;13.72;64.36;94812.94;5014749;28;20602;-79
2021/10/04 03:10:34;;;;;;;30.15;12.20;;;13.90;79.70;;;13.79;64.40;94819.97;5002103;28;20578;-79
2021/10/04 03:13:03;;;;;;;28.10;11.95;;;13.90;80.60;;;13.84;64.26;94817.50;5037200;28;20547;-79
2021/10/04 03:15:30;;;;;;;33.83;11.88;;;13.90;79.70;;;13.86;64.31;94816.25;5053964;28;20203;-79
2021/10/04 03:17:57;;;;;;;26.58;12.57;;;14.00;79.80;;;13.95;64.31;94819.44;5037695;28;20597;-79
2021/10/04 03:20:25;;;;;;;25.33;11.20;;;14.00;79.80;;;13.96;64.52;94815.78;5034226;28;20324;-79
2021/10/04 03:22:54;;;;;;;27.65;11.07;;;14.10;79.90;;;14.04;64.26;94825.28;5037553;28;20222;-79
2021/10/04 03:25:23;;;;;;;18.13;10.07;;;14.10;79.90;;;14.09;64.44;94828.84;5070505;28;20552;-81
2021/10/04 03:27:50;;;;;;;30.60;10.00;;;14.20;79.90;;;14.13;64.45;94831.88;5052141;28;20788;-81
2021/10/04 03:30:17;;;;;;;33.40;10.35;;;14.30;80.00;;;14.15;64.50;94832.47;5051629;28;20192;-81
2021/10/04 03:32:46;;;;;;;25.88;10.20;;;14.30;80.00;;;14.22;64.46;94840.31;5035335;28;20265;-81
2021/10/04 03:35:13;;;;;;;25.02;10.07;;;14.30;80.00;;;14.26;64.10;94830.97;5035822;28;20195;-81
2021/10/04 03:37:41;;;;;;;22.77;9.27;;;14.30;79.90;;;14.29;64.46;94835.78;5051777;28;20234;-81
2021/10/04 03:40:10;;;;;;;20.88;9.40;;;14.40;80.00;;;14.30;64.50;94834.78;5051645;28;20558;-81
2021/10/04 03:42:37;;;;;;;37.97;9.55;;;14.40;80.00;;;14.34;64.69;94835.16;5035274;28;20203;-81
2021/10/04 03:45:05;;;;;;;41.03;9.63;;;14.50;80.00;;;14.36;64.55;94835.75;5020960;28;20201;-81
2021/10/04 03:47:33;;;;;;;18.65;9.30;;;14.50;80.00;;;14.43;64.46;94846.22;5036888;28;20223;-80
2021/10/04 03:50:00;;;;;;;31.48;9.40;;;14.60;80.10;;;14.44;64.42;94846.03;5053395;28;20661;-81
2021/10/04 03:52:27;;;;;;;25.55;8.88;;;14.50;80.00;;;14.48;64.60;94841.13;5053361;28;20219;-81
2021/10/04 03:54:54;;;;;;;35.15;9.32;;;14.60;80.00;;;14.49;64.28;94846.19;5053385;28;20218;-80
2021/10/04 03:57:22;;;;;;;29.58;10.43;;;14.60;80.00;;;14.51;64.18;94841.50;5037157;28;20276;-81
2021/10/04 03:59:49;;;;;;;28.40;9.65;;;14.70;80.80;;;14.52;64.73;94844.94;5032024;28;20473;-81
2021/10/04 04:02:16;;;;;;;27.38;8.68;;;14.70;80.00;;;14.53;64.63;94847.34;5026948;28;20281;-81
2021/10/04 04:04:43;;;;;;;49.67;9.20;;;14.70;80.00;;;14.55;64.55;94847.16;5052734;28;20242;-82
2021/10/04 04:07:11;;;;;;;40.00;9.75;;;14.60;80.00;;;14.57;64.85;94842.44;5036740;28;20711;-81
2021/10/04 04:09:38;;;;;;;33.67;9.18;;;14.70;80.00;;;14.57;64.75;94843.25;5037172;28;20221;-81
2021/10/04 04:12:05;;;;;;;34.58;9.18;;;14.70;80.00;;;14.59;64.55;94840.41;5035796;28;20272;-81
2021/10/04 04:14:33;;;;;;;44.20;8.85;;;14.70;80.00;;;14.60;64.64;94839.38;5052962;28;20203;-80
2021/10/04 04:17:00;;;;;;;27.30;8.85;;;14.80;79.90;;;14.56;64.85;94835.53;5032731;28;20223;-80
2021/10/04 04:19:27;;;;;;;25.73;8.18;;;14.80;80.00;;;14.59;64.79;94843.03;5066368;28;20242;-81
2021/10/04 04:21:54;;;;;;;24.35;8.05;;;14.80;79.90;;;14.58;64.57;94842.22;5050645;28;20238;-80
2021/10/04 04:24:21;;;;;;;18.40;8.38;;;14.80;79.80;;;14.52;64.67;94845.72;5052930;28;20280;-81
2021/10/04 04:26:50;;;;;;;16.08;7.45;;;14.80;79.70;;;14.51;64.35;94848.59;5036501;28;20248;-81
2021/10/04 04:29:18;;;;;;;10.90;7.55;;;14.80;79.60;;;14.50;64.63;94857.53;5052584;28;20274;-79
2021/10/04 04:31:45;;;;;;;15.40;8.07;;;14.70;79.30;;;14.44;64.89;94853.94;5052857;28;20584;-81
2021/10/04 04:34:12;;;;;;;21.95;8.35;;;14.70;79.30;;;14.37;64.89;94847.91;5036272;28;20266;-80
2021/10/04 04:36:40;;;;;;;19.63;7.93;;;14.70;79.30;;;14.34;64.82;94850.97;5036143;28;20602;-81
2021/10/04 04:39:07;;;;;;;15.93;8.20;;;14.70;79.30;;;14.30;64.76;94861.16;5019167;28;20300;-81
2021/10/04 04:41:34;;;;;;;20.73;8.30;;;14.60;79.30;;;14.29;64.88;94864.03;5052509;28;20231;-80
2021/10/04 04:44:02;;;;;;;27.83;9.80;;;14.70;79.40;;;14.26;65.04;94867.91;5036173;28;20302;-79
2021/10/04 04:46:29;;;;;;;26.40;7.78;;;14.60;79.30;;;14.22;64.80;94864.06;5049449;28;20293;-80
2021/10/04 04:48:57;;;;;;;21.95;7.40;;;14.60;79.20;;;14.18;64.77;94868.97;5052455;28;20210;-80
2021/10/04 04:51:24;;;;;;;21.17;6.80;;;14.50;79.20;;;14.15;64.61;94877.31;5035917;28;20310;-80
2021/10/04 04:53:51;;;;;;;21.88;7.00;;;14.50;79.20;;;14.11;64.75;94872.69;5019347;28;20187;-81
2021/10/04 04:56:18;;;;;;;20.00;7.18;;;14.50;79.20;;;14.08;65.00;94872.06;5051885;28;20215;-80
2021/10/04 04:58:46;;;;;;;35.10;9.35;;;14.50;79.20;;;14.03;64.78;94868.47;5033728;28;20246;-80
2021/10/04 05:01:13;;;;;;;32.15;9.73;;;14.40;79.20;;;14.00;64.97;94880.28;5048451;28;20755;-81
2021/10/04 05:03:41;;;;;;;31.35;8.05;;;14.40;79.20;;;13.97;64.85;94878.06;5052171;28;20191;-80
2021/10/04 05:06:09;;;;;;;26.40;8.07;;;14.30;79.10;;;13.93;64.83;94874.22;5052462;28;20216;-81
2021/10/04 05:08:36;;;;;;;19.00;7.80;;;14.30;79.10;;;13.89;65.12;94870.38;5034318;28;20291;-80
2021/10/04 05:11:03;;;;;;;14.55;7.57;;;14.40;79.20;;;13.79;64.86;94865.59;5035202;28;20228;-81
2021/10/04 05:13:31;;;;;;;31.33;8.57;;;14.20;79.00;;;13.77;64.85;94870.28;5034278;28;20191;-80
2021/10/04 05:15:58;;;;;;;101.30;44.35;;;14.20;79.10;;;13.76;64.96;94872.09;5030894;28;20216;-80
2021/10/04 05:18:25;;;;;;;109.05;47.03;;;14.20;79.10;;;13.75;64.99;94883.66;5048486;28;20192;-79
2021/10/04 05:20:54;;;;;;;32.78;18.15;;;14.10;79.10;;;13.73;65.16;94879.63;5046865;28;20282;-79
2021/10/04 05:23:22;;;;;;;23.33;11.00;;;14.10;79.20;;;13.70;65.09;94878.22;5023540;28;20195;-80
2021/10/04 05:25:49;;;;;;;20.98;9.40;;;14.10;79.10;;;13.63;65.11;94874.03;5068301;28;20692;-79
2021/10/04 05:28:16;;;;;;;14.57;9.30;;;14.10;79.10;;;13.63;64.90;94876.66;5051078;28;20409;-79
2021/10/04 05:30:46;;;;;;;13.80;8.60;;;14.10;79.20;;;13.58;65.23;94875.44;5064920;28;20216;-80
2021/10/04 05:33:13;;;;;;;10.52;7.70;;;14.00;79.10;;;13.55;64.88;94869.78;5014169;28;20287;-80
2021/10/04 05:35:41;;;;;;;16.08;8.15;;;13.90;79.00;;;13.50;65.22;94872.25;5014935;28;20235;-80
2021/10/04 05:38:09;;;;;;;11.05;7.30;;;14.00;78.90;;;13.42;64.98;94874.09;5022815;28;20207;-80
2021/10/04 05:40:36;;;;;;;11.20;7.82;;;13.90;78.90;;;13.39;65.02;94876.34;5034730;28;20288;-80
2021/10/04 05:43:04;;;;;;;16.25;7.90;;;13.90;79.00;;;13.38;65.26;94883.47;5034620;28;20187;-80
2021/10/04 05:45:31;;;;;;;12.38;7.80;;;13.80;79.20;;;13.34;65.28;94871.72;5051275;28;20198;-80
2021/10/04 05:48:00;;;;;;;10.20;7.93;;;13.80;79.40;;;13.40;65.12;94881.44;5035133;28;20206;-80
2021/10/04 05:50:27;;;;;;;9.38;7.10;;;13.70;79.60;;;13.47;65.17;94889.28;5035534;28;20585;-79
2021/10/04 05:52:55;;;;;;;7.93;6.97;;;13.80;79.70;;;13.51;65.16;94890.50;5050889;28;20195;-80
2021/10/04 05:55:23;;;;;;;9.50;7.10;;;13.80;79.70;;;13.53;65.40;94891.09;5034476;28;20286;-79
2021/10/04 05:57:51;;;;;;;13.38;6.93;;;13.80;79.70;;;13.56;65.05;94898.59;5033528;28;20195;-79
2021/10/04 06:00:20;;;;;;;8.18;6.63;;;13.80;79.70;;;13.58;65.11;94901.00;5034366;28;20199;-80
2021/10/04 06:02:47;;;;;;;12.35;6.00;;;13.80;79.70;;;13.60;65.21;94891.84;5034460;28;20708;-79
2021/10/04 06:05:15;;;;;;;6.68;5.97;;;13.80;79.70;;;13.66;65.22;94892.84;5034204;28;20199;-80
2021/10/04 06:07:43;;;;;;;9.82;5.90;;;13.90;79.90;;;13.68;65.38;94888.16;5034423;28;20238;-81
2021/10/04 06:10:12;;;;;;;9.75;7.10;;;13.90;80.00;;;13.75;65.27;94899.47;5051335;28;20221;-80
2021/10/04 06:12:40;;;;;;;15.57;7.32;;;13.90;80.10;;;13.80;65.45;94908.59;5034556;28;20284;-80
2021/10/04 06:15:10;;;;;;;24.25;9.95;;;14.00;80.20;;;13.85;65.28;94911.41;5033565;28;20280;-80
2021/10/04 06:17:38;;;;;;;25.27;10.23;;;14.00;80.20;;;13.89;65.04;94909.94;5049510;28;20223;-80
2021/10/04 06:20:06;;;;;;;14.25;9.13;;;14.00;80.20;;;13.95;65.42;94906.44;5050468;28;20206;-80
2021/10/04 06:22:35;;;;;;;16.27;7.72;;;14.10;80.30;;;14.01;65.40;94910.06;5038588;28;20314;-80
2021/10/04 06:25:05;;;;;;;20.27;7.22;;;14.10;80.40;;;14.08;65.41;94908.19;4996734;28;20231;-80
2021/10/04 06:27:33;;;;;;;16.45;6.75;;;14.20;80.60;;;14.13;65.30;94921.56;5028449;28;20220;-80
2021/10/04 06:30:00;;;;;;;14.60;6.75;;;14.20;80.40;;;14.20;65.24;94924.16;5044985;28;20211;-81
2021/10/04 06:32:28;;;;;;;17.73;5.88;;;14.30;80.50;;;14.24;65.41;94925.34;5028444;28;20242;-80
2021/10/04 06:34:55;;;;;;;24.92;5.90;;;14.30;80.50;;;14.30;65.20;94929.75;5050396;28;20195;-79
2021/10/04 06:37:22;;;;;;;29.35;6.28;;;14.40;80.50;;;14.32;64.97;94925.06;5050341;28;20242;-80
2021/10/04 06:39:49;;;;;;;21.20;6.38;;;14.40;80.50;;;14.39;65.26;94927.66;5034399;28;20229;-80
2021/10/04 06:42:18;;;;;;;22.55;5.78;;;14.50;80.50;;;14.44;65.19;94932.28;5034329;28;20250;-80
2021/10/04 06:44:46;;;;;;;25.98;7.15;;;14.50;80.40;;;14.48;65.49;94933.50;5053594;28;20218;-80
2021/10/04 06:47:13;;;;;;;34.20;6.30;;;14.50;80.40;;;14.53;65.25;94913.31;5017849;28;20740;-80
2021/10/04 06:49:42;;;;;;;24.92;6.43;;;14.60;80.60;;;14.60;65.26;94929.13;5034847;28;20200;-80
2021/10/04 06:52:09;;;;;;;33.47;6.13;;;14.60;80.60;;;14.64;65.27;94926.84;5035015;28;20251;-80
2021/10/04 06:54:38;;;;;;;20.38;6.70;;;14.70;80.80;;;14.74;65.57;94935.09;5018792;28;20657;-80
2021/10/04 06:57:05;;;;;;;32.72;11.07;;;14.80;80.90;;;14.80;65.22;94942.16;5034833;28;20752;-79
2021/10/04 06:59:34;;;;;;;25.13;7.80;;;14.80;80.90;;;14.87;65.32;94942.91;5034683;28;20285;-79
2021/10/04 07:02:03;;;;;;;31.35;7.90;;;14.80;80.80;;;14.96;65.41;94947.91;5033665;28;20235;-79
2021/10/04 07:04:30;;;;;;;36.40;7.72;;;14.90;80.90;;;15.01;65.39;94940.97;5034631;28;20227;-80
2021/10/04 07:06:59;;;;;;;31.35;8.25;;;15.00;81.00;;;15.09;64.96;94929.28;5017460;28;20686;-80
2021/10/04 07:09:26;;;;;;;23.92;11.65;;;15.10;81.00;;;15.15;65.74;94938.97;5018096;28;20207;-80
2021/10/04 07:11:53;;;;;;;35.15;8.50;;;15.10;80.90;;;15.23;65.07;94945.00;5034677;28;20235;-81
2021/10/04 07:14:20;;;;;;;25.27;7.32;;;15.20;80.70;;;15.26;65.21;94949.81;5034635;28;20227;-80
2021/10/04 07:16:48;;;;;;;22.02;7.03;;;15.20;80.80;;;15.32;65.13;94956.91;5070484;28;20770;-80
2021/10/04 07:19:16;;;;;;;13.38;6.88;;;15.30;81.00;;;15.40;65.32;94961.09;5054386;28;20233;-80
2021/10/04 07:21:45;;;;;;;15.77;5.97;;;15.40;81.00;;;15.44;65.25;94963.06;5054574;28;20219;-81
2021/10/04 07:24:12;;;;;;;16.85;6.18;;;15.40;80.90;;;15.49;65.28;94960.56;5054322;28;20285;-80
2021/10/04 07:26:39;;;;;;;39.92;6.53;;;15.50;81.00;;;15.53;65.22;94960.94;5053905;28;20223;-80
2021/10/04 07:29:07;;;;;;;23.20;7.38;;;15.50;80.80;;;15.60;64.95;94981.97;5037510;28;20195;-80
2021/10/04 07:31:34;;;;;;;34.03;7.03;;;15.60;80.70;;;15.59;65.15;94985.69;5070835;28;20223;-80
2021/10/04 07:34:06;;;;;;;45.50;8.57;;;15.60;80.50;;;15.59;65.02;94977.75;5054394;28;20600;-77
2021/10/04 07:36:34;;;;;;;9.70;7.07;;;15.60;80.40;;;15.63;65.12;94981.56;5070135;28;20307;-78
2021/10/04 07:39:05;;;;;;;14.82;7.07;;;15.70;80.60;;;15.71;65.34;94973.34;5069395;28;20206;-79
2021/10/04 07:41:34;;;;;;;22.42;6.90;;;15.70;80.80;;;15.78;65.22;94975.88;5054515;28;20673;-78
2021/10/04 07:44:03;;;;;;;9.02;6.57;;;15.70;80.80;;;15.91;65.70;94973.09;5071146;28;20573;-79
2021/10/04 07:46:30;;;;;;;11.40;6.28;;;15.80;81.10;;;16.04;65.69;94955.41;5052989;28;20622;-79
2021/10/04 07:48:58;;;;;;;8.18;6.95;;;15.90;81.30;;;16.17;65.70;94958.72;5070166;28;20656;-79
2021/10/04 07:51:26;;;;;;;9.23;6.70;;;16.00;81.60;;;16.32;65.49;94962.78;5037206;28;20680;-80
2021/10/04 07:53:53;;;;;;;9.02;6.82;;;16.20;81.80;;;16.47;65.17;94959.69;5053045;28;20199;-79
2021/10/04 07:56:20;;;;;;;8.40;7.20;;;16.20;81.70;;;16.63;65.48;94966.97;5052662;28;20539;-79
2021/10/04 07:58:49;;;;;;;12.77;8.18;;;16.40;81.70;;;16.79;65.09;94960.19;5053455;28;20278;-80
2021/10/04 08:01:17;;;;;;;9.50;8.20;;;16.50;81.80;;;16.94;65.04;94965.06;5068358;28;20242;-79
2021/10/04 08:03:45;;;;;;;10.00;8.00;;;16.60;82.00;;;17.11;65.26;94956.41;5069290;28;20192;-80
2021/10/04 08:06:14;;;;;;;9.57;7.72;;;16.70;82.60;;;17.25;64.98;94964.94;5053000;28;20742;-80
2021/10/04 08:08:41;;;;;;;9.60;7.70;;;16.90;81.80;;;17.38;65.19;94958.56;5068731;28;20210;-77
2021/10/04 08:11:09;;;;;;;10.52;8.60;;;17.00;81.70;;;17.49;65.01;94963.06;5069689;28;20246;-78
2021/10/04 08:13:38;;;;;;;15.45;9.10;;;17.20;81.50;;;17.59;64.79;94957.97;5036681;28;20214;-77
2021/10/04 08:16:07;;;;;;;10.45;8.88;;;17.30;81.20;;;17.64;64.15;94957.25;5068674;28;20689;-78
2021/10/04 08:18:35;;;;;;;9.85;8.18;;;17.40;80.90;;;17.70;64.66;94960.81;5036281;28;20193;-78
2021/10/04 08:21:02;;;;;;;10.77;8.32;;;17.50;80.70;;;17.76;64.40;94962.53;5036501;28;20219;-78
2021/10/04 08:23:30;;;;;;;13.65;9.02;;;17.60;80.60;;;17.84;64.45;94966.66;5036632;28;20234;-79
2021/10/04 08:25:57;;;;;;;9.77;8.23;;;17.70;80.40;;;17.90;64.39;94969.16;5036423;28;20227;-80
2021/10/04 08:28:24;;;;;;;10.70;9.07;;;17.80;80.20;;;17.96;64.42;94969.31;5053083;28;20305;-79
2021/10/04 08:30:51;;;;;;;9.95;8.93;;;17.80;80.10;;;18.04;64.17;94982.19;5036427;28;20207;-81
2021/10/04 08:33:19;;;;;;;10.43;9.15;;;17.90;80.20;;;18.06;63.57;94986.19;5036567;28;20573;-80
2021/10/04 08:35:47;;;;;;;9.77;8.77;;;17.90;80.20;;;18.10;63.51;94989.19;5068956;28;20214;-81
2021/10/04 08:38:14;;;;;;;9.68;8.50;;;17.90;80.20;;;18.04;63.77;94975.03;5053138;28;20208;-80
2021/10/04 08:40:42;;;;;;;10.15;9.13;;;18.00;79.90;;;18.14;63.57;94989.53;5052319;28;20638;-80
2021/10/04 08:43:09;;;;;;;10.40;8.90;;;18.00;79.70;;;18.15;63.46;94983.19;5035858;28;20322;-80
2021/10/04 08:45:37;;;;;;;9.95;8.55;;;18.10;79.70;;;18.19;63.31;94986.97;5069151;28;20261;-80
2021/10/04 08:48:09;;;;;;;11.93;8.40;;;18.10;79.70;;;18.22;63.44;94984.66;5035919;28;20209;-81
2021/10/04 08:50:36;;;;;;;11.30;9.32;;;18.10;79.30;;;18.23;63.04;94978.28;5036191;28;20184;-80
2021/10/04 08:53:05;;;;;;;9.80;8.80;;;18.20;79.30;;;18.25;63.01;94983.38;5036142;28;20282;-80
2021/10/04 08:55:37;;;;;;;12.20;9.57;;;18.20;79.30;;;18.29;62.96;94984.50;5052489;28;20613;-81
2021/10/04 08:58:09;;;;;;;11.32;8.82;;;18.20;79.40;;;18.36;63.71;94992.34;5052785;28;20663;-81
2021/10/04 09:00:38;;;;;;;9.32;8.35;;;18.20;79.50;;;18.42;63.28;94993.22;5035400;28;20195;-80
2021/10/04 09:03:06;;;;;;;11.35;10.15;;;18.20;79.60;;;18.50;63.53;94984.84;5035048;28;20223;-80
2021/10/04 09:05:34;;;;;;;11.27;9.85;;;18.30;79.70;;;18.59;63.59;94990.56;5032624;28;20200;-80
2021/10/04 09:08:15;;;;;;;12.82;9.73;;;18.40;79.80;;;18.68;63.41;94986.50;5032020;28;20279;-80
2021/10/04 09:10:47;;;;;;;11.60;9.52;;;18.50;79.50;;;18.72;62.74;94984.94;5047222;28;20314;-82
2021/10/04 09:13:16;;;;;;;12.48;9.15;;;18.50;79.20;;;18.76;62.79;94994.06;5016506;28;20227;-80
2021/10/04 09:15:51;;;;;;;9.93;8.68;;;18.60;79.10;;;18.78;62.58;94991.94;5015962;28;20231;-81
2021/10/04 09:18:26;;;;;;;12.80;11.13;;;18.60;78.90;;;18.76;62.29;94985.28;5032086;28;20203;-80
2021/10/04 09:21:03;;;;;;;11.68;10.48;;;18.60;78.70;;;18.79;62.21;94984.81;5048495;28;20239;-80
2021/10/04 09:23:44;;;;;;;11.30;9.70;;;18.70;78.80;;;18.79;62.29;94985.59;5031914;28;20231;-79
2021/10/04 09:26:33;;;;;;;10.55;9.45;;;18.70;78.40;;;18.78;62.51;94983.19;5054642;28;20207;-80
2021/10/04 09:29:11;;;;;;;10.70;9.57;;;18.80;78.40;;;18.80;62.12;94984.56;5031901;28;20200;-81
2021/10/04 09:31:44;;;;;;;11.82;9.88;;;18.80;78.40;;;18.84;62.52;94990.97;5041172;28;20230;-79
2021/10/04 09:34:27;;;;;;;11.63;9.60;;;18.80;78.30;;;18.83;61.76;94999.22;5031173;28;20300;-79
2021/10/04 09:36:58;;;;;;;12.25;10.60;;;18.70;78.20;;;18.80;61.91;94991.72;5035737;28;20639;-80
2021/10/04 09:39:37;;;;;;;13.20;9.85;;;18.80;78.10;;;18.76;61.72;95002.03;5051533;28;20562;-80
2021/10/04 09:42:21;;;;;;;84.30;14.70;;;18.70;77.80;;;18.72;61.72;94999.06;5048129;28;20223;-79
2021/10/04 09:45:00;;;;;;;19.92;10.80;;;18.80;77.80;;;18.69;61.81;95006.69;5051989;28;20199;-80
2021/10/04 09:47:38;;;;;;;11.75;9.93;;;18.70;77.70;;;18.66;62.10;95005.34;5033854;28;20223;-80
2021/10/04 09:50:11;;;;;;;12.90;11.02;;;18.70;77.70;;;18.70;61.95;94997.66;5020842;28;20199;-80
2021/10/04 09:52:50;;;;;;;38.13;14.10;;;18.70;77.90;;;18.76;61.66;95001.22;5067869;28;20630;-81
2021/10/04 09:55:33;;;;;;;13.38;11.45;;;18.70;77.80;;;18.83;62.21;95009.84;5067964;28;20659;-80
2021/10/04 09:58:06;;;;;;;21.83;12.32;;;18.70;77.90;;;18.88;61.59;95013.41;5050742;28;20191;-81
2021/10/04 10:00:43;;;;;;;13.98;11.55;;;18.70;77.80;;;18.92;61.85;95011.09;5048872;28;20218;-80
2021/10/04 10:03:13;;;;;;;18.55;11.25;;;18.80;78.00;;;18.96;61.41;95006.09;5049755;28;20272;-80
2021/10/04 10:05:46;;;;;;;16.98;11.95;;;18.90;78.00;;;18.99;61.19;95011.72;5049647;28;20199;-80
2021/10/04 10:08:14;;;;;;;14.38;11.27;;;18.90;77.80;;;19.03;61.53;95009.41;5032748;28;20257;-80
2021/10/04 10:10:44;;;;;;;13.70;10.88;;;18.90;77.80;;;19.05;61.18;95012.59;5034260;28;20191;-81
2021/10/04 10:13:15;;;;;;;13.88;11.38;;;18.90;77.70;;;19.08;61.31;95006.81;5050132;28;20191;-80
2021/10/04 10:16:05;;;;;;;15.73;11.05;;;18.90;77.60;;;19.19;61.44;95005.13;5016036;28;20227;-82